Time,TemperatureF,DewpointF,PressureIn,WindDirection,WindDirectionDegrees,WindSpeedMPH,WindSpeedGustMPH,Humidity,HourlyPrecipIn,Conditions,Clouds,dailyrainin,SolarRadiationWatts/m^2,SoftwareType,DateUTC
2013-03-18 00:03:00,29.9,22.3,29.71,ENE,74,11.0,11.0,73,0.00,CLR,,0.00,0.0,WeatherDisplay:10.37,2013-03-17 23:03:00,
2013-03-18 00:08:00,29.9,22.3,29.71,ESE,103,12.7,12.7,73,0.00,CLR,,0.00,0.0,WeatherDisplay:10.37,2013-03-17 23:08:00,
2013-03-18 00:13:00,29.9,22.6,29.71,East,90,9.2,9.2,74,0.00,CLR,,0.00,0.0,WeatherDisplay:10.37,2013-03-17 23:13:00,
2013-03-18 00:18:00,29.8,22.5,29.70,East,79,8.1,8.1,74,0.00,CLR,,0.00,0.0,WeatherDisplay:10.37,2013-03-17 23:18:00,
2013-03-18 00:24:00,29.8,22.5,29.70,ENE,76,11.5,11.5,74,0.00,CLR,,0.00,0.0,WeatherDisplay:10.37,2013-03-17 23:24:00,
2013-03-18 00:30:00,29.8,22.5,29.70,East,95,11.5,11.5,74,0.00,CLR,,0.00,0.0,WeatherDisplay:10.37,2013-03-17 23:30:00,
2013-03-18 00:36:00,29.8,22.5,29.70,East,96,10.4,10.4,74,0.00,CLR,,0.00,0.0,WeatherDisplay:10.37,2013-03-17 23:36:00,
2013-03-18 00:41:00,29.8,22.5,29.71,ESE,121,11.5,11.5,74,0.00,CLR,,0.00,0.0,WeatherDisplay:10.37,2013-03-17 23:41:00,
2013-03-18 00:46:00,29.8,22.5,29.70,SE,128,9.2,9.2,74,0.00,CLR,,0.00,0.0,WeatherDisplay:10.37,2013-03-17 23:46:00,
2013-03-18 00:51:00,29.8,22.5,29.70,East,81,11.5,11.5,74,0.00,CLR,,0.00,0.0,WeatherDisplay:10.37,2013-03-17 23:51:00,
2013-03-18 00:56:00,29.7,22.4,29.71,East,86,8.1,8.1,74,0.00,CLR,,0.00,0.0,WeatherDisplay:10.37,2013-03-17 23:56:00,
2013-03-18 01:01:00,29.7,22.4,29.71,East,92,8.1,8.1,74,0.00,CLR,,0.00,0.0,WeatherDisplay:10.37,2013-03-18 00:01:00,
2013-03-18 01:06:00,29.7,22.4,29.71,East,95,8.1,8.1,74,0.00,CLR,,0.00,0.0,WeatherDisplay:10.37,2013-03-18 00:06:00,
2013-03-18 01:11:00,29.6,22.6,29.71,East,80,6.9,6.9,75,0.00,CLR,,0.00,0.0,WeatherDisplay:10.37,2013-03-18 00:11:00,
2013-03-18 01:16:00,29.5,22.6,29.71,East,80,8.1,8.1,75,0.00,CLR,,0.00,0.0,WeatherDisplay:10.37,2013-03-18 00:16:00,
2013-03-18 01:21:00,29.5,22.6,29.71,ESE,109,6.9,6.9,75,0.00,CLR,,0.00,0.0,WeatherDisplay:10.37,2013-03-18 00:21:00,
2013-03-18 01:26:00,29.5,22.6,29.71,East,94,8.0,8.0,75,0.00,CLR,,0.00,0.0,WeatherDisplay:10.37,2013-03-18 00:26:00,
2013-03-18 01:31:00,29.5,22.6,29.71,ENE,75,11.5,11.5,75,0.00,CLR,,0.00,0.0,WeatherDisplay:10.37,2013-03-18 00:31:00,
2013-03-18 01:36:00,29.5,22.6,29.71,East,94,8.0,8.0,75,0.00,CLR,,0.00,0.0,WeatherDisplay:10.37,2013-03-18 00:36:00,
2013-03-18 01:41:00,29.5,22.6,29.71,East,82,7.0,7.0,75,0.00,CLR,,0.00,0.0,WeatherDisplay:10.37,2013-03-18 00:41:00,
2013-03-18 01:46:00,29.5,22.6,29.70,ENE,69,11.5,11.5,75,0.00,CLR,,0.00,0.0,WeatherDisplay:10.37,2013-03-18 00:46:00,
2013-03-18 01:51:00,29.5,22.6,29.70,East,81,11.5,11.5,75,0.00,CLR,,0.00,0.0,WeatherDisplay:10.37,2013-03-18 00:51:00,
2013-03-18 01:56:00,29.5,22.6,29.70,ENE,71,6.9,6.9,75,0.00,CLR,,0.00,0.0,WeatherDisplay:10.37,2013-03-18 00:56:00,
2013-03-18 06:58:00,28.3,22.6,29.63,ENE,76,25.0,25.0,79,0.00,CLR,,0.00,40.0,WeatherDisplay:10.37,2013-03-18 05:58:00,
2013-03-18 06:59:00,28.3,22.6,29.63,East,81,11.5,11.5,79,0.00,BKN,,0.00,37.0,WeatherDisplay:10.37,2013-03-18 05:59:00,
2013-03-18 07:07:00,28.4,22.7,29.62,East,88,10.4,10.4,79,0.00,BKN,,0.00,56.0,WeatherDisplay:10.37,2013-03-18 06:07:00,
2013-03-18 07:10:00,28.5,22.8,29.62,ENE,73,11.0,11.0,79,0.00,BKN,,0.00,63.0,WeatherDisplay:10.37,2013-03-18 06:10:00,
2013-03-18 07:15:00,28.7,22.7,29.62,ESE,122,12.7,12.7,78,0.00,BKN,,0.00,76.0,WeatherDisplay:10.37,2013-03-18 06:15:00,
2013-03-18 07:20:00,28.9,22.9,29.62,ENE,78,8.1,8.1,78,0.00,BKN,,0.00,74.0,WeatherDisplay:10.37,2013-03-18 06:20:00,
2013-03-18 07:25:00,29.2,23.2,29.62,ENE,77,8.0,8.0,78,0.00,BKN,,0.00,95.0,WeatherDisplay:10.37,2013-03-18 06:25:00,
2013-03-18 07:30:00,29.4,23.4,29.62,ESE,111,8.0,8.0,78,0.00,SCT,,0.00,111.0,WeatherDisplay:10.37,2013-03-18 06:30:00,
2013-03-18 07:35:00,29.7,23.7,29.61,East,81,9.0,9.0,78,0.00,SCT,,0.00,120.0,WeatherDisplay:10.37,2013-03-18 06:35:00,
2013-03-18 07:40:00,30.0,23.7,29.61,East,80,9.2,9.2,77,0.00,SCT,,0.00,171.0,WeatherDisplay:10.37,2013-03-18 06:40:00,
2013-03-18 07:45:00,30.4,24.1,29.61,East,89,7.0,7.0,77,0.00,FEW,,0.00,192.0,WeatherDisplay:10.37,2013-03-18 06:45:00,
2013-03-18 07:50:00,30.9,24.2,29.61,ENE,58,8.1,8.1,76,0.00,FEW,,0.00,232.0,WeatherDisplay:10.37,2013-03-18 06:50:00,
2013-03-18 07:55:00,31.5,24.8,29.61,NE,53,8.1,8.1,76,0.00,CLR,,0.00,207.0,WeatherDisplay:10.37,2013-03-18 06:55:00,
2013-03-18 08:00:00,31.7,24.7,29.61,ENE,71,11.5,11.5,75,0.00,SCT,,0.00,185.0,WeatherDisplay:10.37,2013-03-18 07:00:00,
2013-03-18 08:05:00,31.7,24.4,29.61,ENE,71,12.7,12.7,74,0.00,SCT,,0.00,192.0,WeatherDisplay:10.37,2013-03-18 07:05:00,
2013-03-18 08:10:00,31.8,24.5,29.60,East,85,11.5,11.5,74,0.00,SCT,,0.00,207.0,WeatherDisplay:10.37,2013-03-18 07:10:00,
2013-03-18 08:15:00,32.0,24.6,29.61,East,91,8.1,8.1,74,0.00,SCT,,0.00,223.0,WeatherDisplay:10.37,2013-03-18 07:15:00,
2013-03-18 08:20:00,32.1,24.4,29.60,East,92,11.5,11.5,73,0.00,SCT,,0.00,199.0,WeatherDisplay:10.37,2013-03-18 07:20:00,
2013-03-18 08:25:00,32.3,24.9,29.61,East,90,11.5,11.5,74,0.00,SCT,,0.00,267.0,WeatherDisplay:10.37,2013-03-18 07:25:00,
2013-03-18 08:30:00,32.7,25.0,29.60,ENE,65,11.0,11.0,73,0.00,FEW,,0.00,316.0,WeatherDisplay:10.37,2013-03-18 07:30:00,
2013-03-18 08:35:00,33.3,25.2,29.61,East,94,11.5,11.5,72,0.00,FEW,,0.00,359.0,WeatherDisplay:10.37,2013-03-18 07:35:00,
2013-03-18 08:40:00,33.6,25.5,29.60,NE,53,11.5,11.5,72,0.00,SCT,,0.00,325.0,WeatherDisplay:10.37,2013-03-18 07:40:00,
2013-03-18 08:45:00,33.8,25.4,29.60,East,79,10.4,10.4,71,0.00,SCT,,0.00,264.0,WeatherDisplay:10.37,2013-03-18 07:45:00,
2013-03-18 08:50:00,33.9,25.1,29.60,East,86,15.0,15.0,70,0.00,SCT,,0.00,313.0,WeatherDisplay:10.37,2013-03-18 07:50:00,
2013-03-18 08:55:00,34.1,25.7,29.60,ENE,59,8.1,8.1,71,0.00,SCT,,0.00,301.0,WeatherDisplay:10.37,2013-03-18 07:55:00,
2013-03-18 09:00:00,34.4,26.0,29.60,East,96,9.0,9.0,71,0.00,SCT,,0.00,285.0,WeatherDisplay:10.37,2013-03-18 08:00:00,
2013-03-18 09:05:00,34.6,26.2,29.60,East,93,8.0,8.0,71,0.00,SCT,,0.00,299.0,WeatherDisplay:10.37,2013-03-18 08:05:00,
2013-03-18 09:10:00,34.4,26.0,29.59,East,88,10.0,10.0,71,0.00,SCT,,0.00,315.0,WeatherDisplay:10.37,2013-03-18 08:10:00,
2013-03-18 09:15:00,34.7,25.9,29.59,ESE,123,10.4,10.4,70,0.00,SCT,,0.00,346.0,WeatherDisplay:10.37,2013-03-18 08:15:00,
2013-03-18 09:20:00,35.0,26.5,29.59,East,89,11.0,11.0,71,0.00,SCT,,0.00,327.0,WeatherDisplay:10.37,2013-03-18 08:20:00,
2013-03-18 09:25:00,35.1,26.3,29.58,East,81,10.4,10.4,70,0.00,SCT,,0.00,320.0,WeatherDisplay:10.37,2013-03-18 08:25:00,
2013-03-18 09:30:00,35.0,26.2,29.58,NE,53,11.5,11.5,70,0.00,SCT,,0.00,301.0,WeatherDisplay:10.37,2013-03-18 08:30:00,
2013-03-18 09:35:00,34.8,26.4,29.58,NE,40,11.5,11.5,71,0.00,SCT,,0.00,320.0,WeatherDisplay:10.37,2013-03-18 08:35:00,
2013-03-18 09:40:00,34.9,26.1,29.58,NE,40,13.8,13.8,70,0.00,SCT,,0.00,329.0,WeatherDisplay:10.37,2013-03-18 08:40:00,
2013-03-18 09:45:00,35.1,26.6,29.58,ESE,119,8.1,8.1,71,0.00,SCT,,0.00,373.0,WeatherDisplay:10.37,2013-03-18 08:45:00,
2013-03-18 09:50:00,35.8,27.3,29.58,East,93,7.0,7.0,71,0.00,SCT,,0.00,432.0,WeatherDisplay:10.37,2013-03-18 08:50:00,
2013-03-18 09:55:00,36.4,27.5,29.57,ESE,117,9.2,9.2,70,0.00,SCT,,0.00,424.0,WeatherDisplay:10.37,2013-03-18 08:55:00,
2013-03-18 10:00:00,36.6,27.0,29.57,East,84,11.5,11.5,68,0.00,SCT,,0.00,411.0,WeatherDisplay:10.37,2013-03-18 09:00:00,
2013-03-18 10:05:00,36.8,27.6,29.56,East,80,10.0,10.0,69,0.00,SCT,,0.00,422.0,WeatherDisplay:10.37,2013-03-18 09:05:00,
2013-03-18 10:10:00,36.8,27.6,29.56,ENE,73,9.2,9.2,69,0.00,SCT,,0.00,352.0,WeatherDisplay:10.37,2013-03-18 09:10:00,
2013-03-18 10:15:00,36.8,27.2,29.56,NE,55,12.0,12.0,68,0.00,BKN,,0.00,323.0,WeatherDisplay:10.37,2013-03-18 09:15:00,
2013-03-18 10:20:00,36.2,26.6,29.56,East,89,10.4,10.4,68,0.00,SCT,,0.00,355.0,WeatherDisplay:10.37,2013-03-18 09:20:00,
2013-03-18 10:25:00,36.6,27.4,29.56,NE,53,11.5,11.5,69,0.00,SCT,,0.00,371.0,WeatherDisplay:10.37,2013-03-18 09:25:00,
2013-03-18 10:30:00,36.7,27.5,29.55,ENE,59,11.5,11.5,69,0.00,BKN,,0.00,302.0,WeatherDisplay:10.37,2013-03-18 09:30:00,
2013-03-18 10:35:00,36.7,27.5,29.55,ENE,63,11.5,11.5,69,0.00,BKN,,0.00,285.0,WeatherDisplay:10.37,2013-03-18 09:35:00,
2013-03-18 10:40:00,36.7,27.5,29.55,ENE,59,10.4,10.4,69,0.00,BKN,,0.00,253.0,WeatherDisplay:10.37,2013-03-18 09:40:00,
2013-03-18 10:45:00,36.7,27.5,29.55,ENE,78,11.5,11.5,69,0.00,OVC,,0.00,232.0,WeatherDisplay:10.37,2013-03-18 09:45:00,
2013-03-18 10:50:00,36.8,27.9,29.55,NE,56,13.0,13.0,70,0.00,BKN,,0.00,304.0,WeatherDisplay:10.37,2013-03-18 09:50:00,
2013-03-18 10:55:00,37.0,28.1,29.54,NE,53,8.1,8.1,70,0.00,BKN,,0.00,322.0,WeatherDisplay:10.37,2013-03-18 09:55:00,
2013-03-18 11:00:00,37.4,28.2,29.53,NE,45,14.0,14.0,69,0.00,BKN,,0.00,236.0,WeatherDisplay:10.37,2013-03-18 10:00:00,
2013-03-18 11:05:00,37.3,28.1,29.53,East,79,6.9,6.9,69,0.00,OVC,,0.00,204.0,WeatherDisplay:10.37,2013-03-18 10:05:00,
2013-03-18 11:10:00,37.6,28.3,29.53,ESE,107,11.5,11.5,69,0.00,OVC,,0.00,193.0,WeatherDisplay:10.37,2013-03-18 10:10:00,
2013-03-18 11:15:00,37.7,28.1,29.53,ESE,107,10.4,10.4,68,0.00,OVC,,0.00,197.0,WeatherDisplay:10.37,2013-03-18 10:15:00,
2013-03-18 11:20:00,38.0,28.0,29.52,SE,126,8.1,8.1,67,0.00,OVC,,0.00,234.0,WeatherDisplay:10.37,2013-03-18 10:20:00,
2013-03-18 11:25:00,38.3,28.3,29.52,ESE,103,11.5,11.5,67,0.00,OVC,,0.00,246.0,WeatherDisplay:10.37,2013-03-18 10:25:00,
2013-03-18 11:30:00,38.5,28.5,29.52,ENE,71,15.0,15.0,67,0.00,OVC,,0.00,253.0,WeatherDisplay:10.37,2013-03-18 10:30:00,
2013-03-18 11:35:00,38.4,28.0,29.52,ESE,109,15.0,15.0,66,0.00,BKN,,0.00,264.0,WeatherDisplay:10.37,2013-03-18 10:35:00,
2013-03-18 11:40:00,38.6,28.9,29.52,East,84,16.1,16.1,68,0.00,OVC,,0.00,262.0,WeatherDisplay:10.37,2013-03-18 10:40:00,
2013-03-18 11:45:00,38.8,28.4,29.51,ESE,105,11.5,11.5,66,0.00,BKN,,0.00,332.0,WeatherDisplay:10.37,2013-03-18 10:45:00,
2013-03-18 11:50:00,39.0,29.0,29.51,SE,143,11.5,11.5,67,0.00,BKN,,0.00,315.0,WeatherDisplay:10.37,2013-03-18 10:50:00,
2013-03-18 11:55:00,39.4,29.0,29.51,ESE,111,18.4,18.4,66,0.00,BKN,,0.00,320.0,WeatherDisplay:10.37,2013-03-18 10:55:00,
2013-03-18 12:00:00,39.2,28.4,29.51,ESE,103,18.4,18.4,65,0.00,BKN,,0.00,306.0,WeatherDisplay:10.37,2013-03-18 11:00:00,
2013-03-18 12:05:00,39.4,29.0,29.50,East,95,15.0,15.0,66,0.00,BKN,,0.00,288.0,WeatherDisplay:10.37,2013-03-18 11:05:00,
2013-03-18 12:10:00,39.5,28.7,29.50,East,94,15.0,15.0,65,0.00,BKN,,0.00,308.0,WeatherDisplay:10.37,2013-03-18 11:10:00,
2013-03-18 12:15:00,39.8,29.0,29.50,East,81,19.6,19.6,65,0.00,SCT,,0.00,420.0,WeatherDisplay:10.37,2013-03-18 11:15:00,
2013-03-18 12:20:00,40.4,29.2,29.49,ESE,118,18.4,18.4,64,0.00,SCT,,0.00,417.0,WeatherDisplay:10.37,2013-03-18 11:20:00,
2013-03-18 12:25:00,40.7,29.8,29.49,East,81,10.4,10.4,65,0.00,FEW,,0.00,557.0,WeatherDisplay:10.37,2013-03-18 11:25:00,
2013-03-18 12:30:00,41.2,29.5,29.49,SE,138,15.0,15.0,63,0.00,FEW,,0.00,534.0,WeatherDisplay:10.37,2013-03-18 11:30:00,
2013-03-18 12:35:00,41.2,29.5,29.48,East,96,13.0,13.0,63,0.00,BKN,,0.00,302.0,WeatherDisplay:10.37,2013-03-18 11:35:00,
2013-03-18 12:41:00,40.8,29.6,29.48,ENE,75,11.5,11.5,64,0.00,BKN,,0.00,330.0,WeatherDisplay:10.37,2013-03-18 11:41:00,
2013-03-18 12:46:00,40.8,29.6,29.47,East,81,14.0,14.0,64,0.00,BKN,,0.00,313.0,WeatherDisplay:10.37,2013-03-18 11:46:00,
2013-03-18 12:51:00,40.6,29.4,29.47,East,89,15.0,15.0,64,0.00,OVC,,0.00,223.0,WeatherDisplay:10.37,2013-03-18 11:51:00,
2013-03-18 12:57:00,40.6,29.4,29.46,ESE,113,14.0,14.0,64,0.00,OVC,,0.00,237.0,WeatherDisplay:10.37,2013-03-18 11:57:00,
2013-03-18 13:02:00,40.7,29.5,29.46,ENE,69,12.7,12.7,64,0.00,BKN,,0.00,255.0,WeatherDisplay:10.37,2013-03-18 12:02:00,
2013-03-18 13:07:00,40.9,29.7,29.46,ESE,117,12.7,12.7,64,0.00,OVC,,0.00,239.0,WeatherDisplay:10.37,2013-03-18 12:07:00,
2013-03-18 13:12:00,40.9,29.7,29.45,ESE,121,19.0,19.0,64,0.00,OVC,,0.00,220.0,WeatherDisplay:10.37,2013-03-18 12:12:00,
2013-03-18 13:17:00,40.8,29.6,29.45,East,86,13.0,13.0,64,0.00,OVC,,0.00,239.0,WeatherDisplay:10.37,2013-03-18 12:17:00,
2013-03-18 13:22:00,40.7,29.5,29.45,ESE,103,17.3,17.3,64,0.00,OVC,,0.00,218.0,WeatherDisplay:10.37,2013-03-18 12:22:00,
2013-03-18 13:28:00,40.6,29.7,29.45,ESE,111,16.1,16.1,65,0.00,OVC,,0.00,213.0,WeatherDisplay:10.37,2013-03-18 12:28:00,
2013-03-18 13:34:00,40.7,30.2,29.45,East,92,19.6,19.6,66,0.00,OVC,,0.00,218.0,WeatherDisplay:10.37,2013-03-18 12:34:00,
2013-03-18 13:39:00,40.6,30.1,29.44,East,82,15.0,15.0,66,0.00,OVC,,0.00,190.0,WeatherDisplay:10.37,2013-03-18 12:39:00,
2013-03-18 13:44:00,40.6,30.1,29.44,ENE,71,18.4,18.4,66,0.00,OVC,,0.00,197.0,WeatherDisplay:10.37,2013-03-18 12:44:00,
2013-03-18 13:49:00,40.5,30.0,29.44,ESE,110,18.0,18.0,66,0.00,OVC,,0.00,178.0,WeatherDisplay:10.37,2013-03-18 12:49:00,
2013-03-18 13:54:00,40.4,30.3,29.43,East,94,12.0,12.0,67,0.00,OVC,,0.00,139.0,WeatherDisplay:10.37,2013-03-18 12:54:00,
2013-03-18 13:59:00,40.3,30.6,29.43,East,86,16.1,16.1,68,0.00,OVC,,0.00,127.0,WeatherDisplay:10.37,2013-03-18 12:59:00,
2013-03-18 14:04:00,40.3,30.9,29.43,East,81,11.5,11.5,69,0.00,OVC,,0.00,123.0,WeatherDisplay:10.37,2013-03-18 13:04:00,
2013-03-18 14:09:00,40.1,30.7,29.43,ENE,75,18.0,18.0,69,0.00,OVC,,0.00,86.0,WeatherDisplay:10.37,2013-03-18 13:09:00,
2013-03-18 14:14:00,39.9,31.3,29.42,SE,127,15.0,15.0,71,0.00,OVC,,0.00,86.0,WeatherDisplay:10.37,2013-03-18 13:14:00,
2013-03-18 14:19:00,39.6,31.7,29.42,ENE,77,15.0,15.0,73,0.00,OVC,,0.00,67.0,WeatherDisplay:10.37,2013-03-18 13:19:00,
2013-03-18 14:24:00,39.0,31.7,29.42,East,94,13.8,13.8,75,0.00,OVC,,0.00,49.0,WeatherDisplay:10.37,2013-03-18 13:24:00,
2013-03-18 14:29:00,38.7,32.1,29.42,ENE,77,19.6,19.6,77,0.00,OVC,,0.00,46.0,WeatherDisplay:10.37,2013-03-18 13:29:00,
2013-03-18 14:34:00,38.3,32.0,29.42,East,90,12.0,12.0,78,0.00,OVC,,0.00,47.0,WeatherDisplay:10.37,2013-03-18 13:34:00,
2013-03-18 14:39:00,38.0,32.1,29.42,SE,132,16.1,16.1,79,0.00,OVC,,0.00,47.0,WeatherDisplay:10.37,2013-03-18 13:39:00,
2013-03-18 14:44:00,37.7,32.1,29.42,East,83,13.8,13.8,80,0.00,OVC,,0.00,49.0,WeatherDisplay:10.37,2013-03-18 13:44:00,
2013-03-18 14:49:00,37.3,32.0,29.42,ESE,103,18.4,18.4,81,0.00,OVC,,0.00,56.0,WeatherDisplay:10.37,2013-03-18 13:49:00,
2013-03-18 14:54:00,37.0,32.0,29.42,East,91,18.4,18.4,82,0.00,OVC,,0.00,44.0,WeatherDisplay:10.37,2013-03-18 13:54:00,
2013-03-18 14:59:00,36.6,31.9,29.42,ENE,73,9.2,9.2,83,0.00,OVC,,0.00,51.0,WeatherDisplay:10.37,2013-03-18 13:59:00,
2013-03-18 15:04:00,36.2,31.5,29.42,ESE,121,12.7,12.7,83,0.00,OVC,,0.00,62.0,WeatherDisplay:10.37,2013-03-18 14:04:00,
2013-03-18 15:09:00,36.0,31.6,29.41,ESE,113,11.5,11.5,84,0.00,OVC,,0.00,62.0,WeatherDisplay:10.37,2013-03-18 14:09:00,
2013-03-18 15:14:00,35.8,31.7,29.42,East,92,15.0,15.0,85,0.00,OVC,,0.00,51.0,WeatherDisplay:10.37,2013-03-18 14:14:00,
2013-03-18 15:19:00,35.4,31.3,29.41,ESE,119,15.0,15.0,85,0.00,OVC,,0.00,40.0,WeatherDisplay:10.37,2013-03-18 14:19:00,
2013-03-18 15:24:00,35.2,31.1,29.41,ESE,111,12.0,12.0,85,0.00,OVC,,0.00,39.0,WeatherDisplay:10.37,2013-03-18 14:24:00,
2013-03-18 15:29:00,35.0,31.2,29.40,ENE,74,12.0,12.0,86,0.00,OVC,,0.00,51.0,WeatherDisplay:10.37,2013-03-18 14:29:00,
2013-03-18 15:34:00,34.9,31.1,29.41,ENE,69,14.0,14.0,86,0.00,OVC,,0.00,44.0,WeatherDisplay:10.37,2013-03-18 14:34:00,
2013-03-18 15:39:00,34.8,31.0,29.40,ENE,64,10.4,10.4,86,0.00,OVC,,0.00,33.0,WeatherDisplay:10.37,2013-03-18 14:39:00,
2013-03-18 15:44:00,34.7,30.9,29.40,East,92,15.0,15.0,86,0.00,OVC,,0.00,35.0,WeatherDisplay:10.37,2013-03-18 14:44:00,
2013-03-18 15:49:00,34.6,30.8,29.40,East,94,13.8,13.8,86,0.00,OVC,,0.00,21.0,WeatherDisplay:10.37,2013-03-18 14:49:00,
2013-03-18 15:54:00,34.5,30.7,29.40,NE,46,14.0,14.0,86,0.00,OVC,,0.00,25.0,WeatherDisplay:10.37,2013-03-18 14:54:00,
2013-03-18 15:59:00,34.3,30.5,29.39,ENE,71,13.0,13.0,86,0.00,OVC,,0.00,46.0,WeatherDisplay:10.37,2013-03-18 14:59:00,
2013-03-18 16:04:00,34.2,30.4,29.39,ENE,59,11.0,11.0,86,0.00,OVC,,0.00,67.0,WeatherDisplay:10.37,2013-03-18 15:04:00,
2013-03-18 16:09:00,34.1,30.4,29.39,ENE,75,13.0,13.0,86,0.00,OVC,,0.00,60.0,WeatherDisplay:10.37,2013-03-18 15:09:00,
2013-03-18 16:14:00,34.0,30.5,29.38,East,80,18.0,18.0,87,0.00,OVC,,0.00,67.0,WeatherDisplay:10.37,2013-03-18 15:14:00,
2013-03-18 16:19:00,33.9,30.4,29.38,East,86,11.5,11.5,87,0.00,OVC,,0.00,58.0,WeatherDisplay:10.37,2013-03-18 15:19:00,
2013-03-18 16:24:00,33.8,30.3,29.38,East,88,11.5,11.5,87,0.00,OVC,,0.00,39.0,WeatherDisplay:10.37,2013-03-18 15:24:00,
2013-03-18 16:29:00,33.8,30.3,29.38,ENE,78,13.0,13.0,87,0.00,OVC,,0.00,35.0,WeatherDisplay:10.37,2013-03-18 15:29:00,
2013-03-18 16:34:00,33.7,30.2,29.38,ENE,61,12.7,12.7,87,0.00,OVC,,0.00,28.0,WeatherDisplay:10.37,2013-03-18 15:34:00,
2013-03-18 16:39:00,33.7,30.2,29.38,ENE,63,12.0,12.0,87,0.00,OVC,,0.00,19.0,WeatherDisplay:10.37,2013-03-18 15:39:00,
2013-03-18 16:44:00,33.6,30.1,29.37,ENE,67,11.5,11.5,87,0.00,OVC,,0.00,18.0,WeatherDisplay:10.37,2013-03-18 15:44:00,
2013-03-18 16:49:00,33.5,30.0,29.37,ENE,59,13.8,13.8,87,0.00,OVC,,0.00,18.0,WeatherDisplay:10.37,2013-03-18 15:49:00,
2013-03-18 16:54:00,33.4,29.9,29.37,NE,51,13.8,13.8,87,0.00,OVC,,0.00,16.0,WeatherDisplay:10.37,2013-03-18 15:54:00,
2013-03-18 16:59:00,33.3,29.8,29.37,East,84,12.7,12.7,87,0.00,OVC,,0.00,16.0,WeatherDisplay:10.37,2013-03-18 15:59:00,
2013-03-18 17:04:00,33.3,29.8,29.36,NE,46,13.0,13.0,87,0.00,OVC,,0.00,16.0,WeatherDisplay:10.37,2013-03-18 16:04:00,
2013-03-18 17:09:00,33.2,29.8,29.36,ENE,61,14.0,14.0,87,0.00,OVC,,0.00,12.0,WeatherDisplay:10.37,2013-03-18 16:09:00,
2013-03-18 17:14:00,33.2,29.8,29.36,NE,47,12.7,12.7,87,0.00,OVC,,0.00,12.0,WeatherDisplay:10.37,2013-03-18 16:14:00,
2013-03-18 17:19:00,33.1,29.7,29.36,East,85,11.5,11.5,87,0.00,OVC,,0.00,11.0,WeatherDisplay:10.37,2013-03-18 16:19:00,
2013-03-18 17:24:00,33.1,29.7,29.36,East,92,12.0,12.0,87,0.00,OVC,,0.00,9.0,WeatherDisplay:10.37,2013-03-18 16:24:00,
2013-03-18 17:29:00,33.0,29.6,29.36,East,86,10.4,10.4,87,0.00,OVC,,0.00,7.0,WeatherDisplay:10.37,2013-03-18 16:29:00,
2013-03-18 17:34:00,32.9,29.5,29.36,East,101,11.5,11.5,87,0.00,OVC,,0.00,5.0,WeatherDisplay:10.37,2013-03-18 16:34:00,
2013-03-18 17:39:00,32.8,29.4,29.36,ENE,77,13.8,13.8,87,0.00,OVC,,0.00,5.0,WeatherDisplay:10.37,2013-03-18 16:39:00,
2013-03-18 17:44:00,32.7,29.3,29.36,ENE,59,12.0,12.0,87,0.00,OVC,,0.00,0.0,WeatherDisplay:10.37,2013-03-18 16:44:00,
2013-03-18 17:50:00,32.7,29.3,29.35,ENE,69,11.5,11.5,87,0.00,OVC,,0.00,0.0,WeatherDisplay:10.37,2013-03-18 16:50:00,
2013-03-18 17:55:00,32.7,29.3,29.35,NE,41,12.7,12.7,87,0.00,OVC,,0.00,0.0,WeatherDisplay:10.37,2013-03-18 16:55:00,
2013-03-18 18:00:00,32.6,29.2,29.35,ENE,69,11.5,11.5,87,0.00,OVC,,0.00,0.0,WeatherDisplay:10.37,2013-03-18 17:00:00,
2013-03-18 18:05:00,32.6,29.2,29.34,ENE,68,14.0,14.0,87,0.00,OVC,,0.00,0.0,WeatherDisplay:10.37,2013-03-18 17:05:00,
2013-03-18 18:10:00,32.5,29.1,29.34,ENE,76,12.7,12.7,87,0.00,OVC,,0.00,0.0,WeatherDisplay:10.37,2013-03-18 17:10:00,
2013-03-18 18:15:00,32.5,29.1,29.34,ESE,122,11.5,11.5,87,0.00,OVC,,0.00,0.0,WeatherDisplay:10.37,2013-03-18 17:15:00,
2013-03-18 18:20:00,32.5,29.1,29.34,East,95,16.0,16.0,87,0.00,OVC,,0.00,0.0,WeatherDisplay:10.37,2013-03-18 17:20:00,
2013-03-18 18:25:00,32.5,29.1,29.34,East,92,16.1,16.1,87,0.01,RA,,0.01,0.0,WeatherDisplay:10.37,2013-03-18 17:25:00,
2013-03-18 18:30:00,32.4,29.0,29.34,East,88,12.7,12.7,87,0.01,RA,,0.01,0.0,WeatherDisplay:10.37,2013-03-18 17:30:00,
2013-03-18 18:35:00,32.4,29.0,29.34,East,88,10.4,10.4,87,0.01,OVC,,0.01,0.0,WeatherDisplay:10.37,2013-03-18 17:35:00,
2013-03-18 18:40:00,32.3,28.9,29.34,East,79,13.0,13.0,87,0.01,CLR,,0.01,0.0,WeatherDisplay:10.37,2013-03-18 17:40:00,
2013-03-18 18:45:00,32.2,28.8,29.34,ESE,103,12.0,12.0,87,0.01,CLR,,0.01,0.0,WeatherDisplay:10.37,2013-03-18 17:45:00,
2013-03-18 18:50:00,32.2,28.8,29.34,East,79,11.5,11.5,87,0.01,CLR,,0.01,0.0,WeatherDisplay:10.37,2013-03-18 17:50:00,
2013-03-18 18:55:00,32.1,28.7,29.34,ENE,68,12.7,12.7,87,0.01,CLR,,0.01,0.0,WeatherDisplay:10.37,2013-03-18 17:55:00,
2013-03-18 19:00:00,32.1,28.7,29.34,East,85,11.0,11.0,87,0.01,CLR,,0.01,0.0,WeatherDisplay:10.37,2013-03-18 18:00:00,
2013-03-18 19:05:00,32.0,28.6,29.33,NE,53,13.8,13.8,87,0.01,CLR,,0.01,0.0,WeatherDisplay:10.37,2013-03-18 18:05:00,
2013-03-18 19:10:00,32.0,28.6,29.33,East,100,12.7,12.7,87,0.01,CLR,,0.01,0.0,WeatherDisplay:10.37,2013-03-18 18:10:00,
2013-03-18 19:15:00,31.9,28.5,29.33,ENE,76,8.1,8.1,87,0.01,CLR,,0.01,0.0,WeatherDisplay:10.37,2013-03-18 18:15:00,
2013-03-18 19:20:00,31.9,28.5,29.33,East,98,8.1,8.1,87,0.01,CLR,,0.01,0.0,WeatherDisplay:10.37,2013-03-18 18:20:00,
2013-03-18 19:25:00,31.9,28.5,29.33,East,86,10.0,10.0,87,0.00,CLR,,0.01,0.0,WeatherDisplay:10.37,2013-03-18 18:25:00,
2013-03-18 19:30:00,31.9,28.5,29.33,East,101,11.0,11.0,87,0.00,CLR,,0.01,0.0,WeatherDisplay:10.37,2013-03-18 18:30:00,
2013-03-18 19:35:00,31.8,28.4,29.33,ENE,59,11.0,11.0,87,0.01,RA,,0.02,0.0,WeatherDisplay:10.37,2013-03-18 18:35:00,
2013-03-18 19:40:00,31.8,28.4,29.33,ENE,72,11.5,11.5,87,0.01,RA,,0.02,0.0,WeatherDisplay:10.37,2013-03-18 18:40:00,
2013-03-18 19:45:00,31.8,28.4,29.33,ENE,70,11.5,11.5,87,0.01,,,0.02,0.0,WeatherDisplay:10.37,2013-03-18 18:45:00,
2013-03-18 19:50:00,31.8,28.4,29.33,ENE,69,11.5,11.5,87,0.01,CLR,,0.02,0.0,WeatherDisplay:10.37,2013-03-18 18:50:00,
2013-03-18 19:55:00,31.7,28.0,29.33,East,86,13.0,13.0,86,0.01,CLR,,0.02,0.0,WeatherDisplay:10.37,2013-03-18 18:55:00,
2013-03-18 20:00:00,31.7,28.0,29.32,East,82,10.4,10.4,86,0.01,CLR,,0.02,0.0,WeatherDisplay:10.37,2013-03-18 19:00:00,
2013-03-18 20:05:00,31.7,28.0,29.32,ENE,62,6.0,6.0,86,0.02,RA,,0.02,0.0,WeatherDisplay:10.37,2013-03-18 19:05:00,
2013-03-18 20:10:00,31.7,28.0,29.32,ENE,61,6.9,6.9,86,0.02,RA,,0.02,0.0,WeatherDisplay:10.37,2013-03-18 19:10:00,
2013-03-18 20:15:00,31.6,27.9,29.32,East,88,10.0,10.0,86,0.02,CLR,,0.02,0.0,WeatherDisplay:10.37,2013-03-18 19:15:00,
2013-03-18 20:20:00,31.7,28.0,29.32,ENE,74,6.9,6.9,86,0.02,CLR,,0.02,0.0,WeatherDisplay:10.37,2013-03-18 19:20:00,
2013-03-18 20:25:00,31.7,28.0,29.32,ENE,64,10.4,10.4,86,0.02,CLR,,0.02,0.0,WeatherDisplay:10.37,2013-03-18 19:25:00,
2013-03-18 20:31:00,31.6,27.9,29.31,ESE,105,10.4,10.4,86,0.02,RA,,0.03,0.0,WeatherDisplay:10.37,2013-03-18 19:31:00,
2013-03-18 20:37:00,31.6,27.9,29.31,East,79,5.8,5.8,86,0.02,RA,,0.03,0.0,WeatherDisplay:10.37,2013-03-18 19:37:00,
2013-03-18 20:42:00,31.6,27.9,29.31,ESE,103,9.2,9.2,86,0.02,CLR,,0.03,0.0,WeatherDisplay:10.37,2013-03-18 19:42:00,
2013-03-18 20:47:00,31.6,27.9,29.31,NE,54,6.9,6.9,86,0.02,RA,,0.04,0.0,WeatherDisplay:10.37,2013-03-18 19:47:00,
2013-03-18 20:52:00,31.6,27.9,29.31,ENE,69,6.9,6.9,86,0.02,RA,,0.04,0.0,WeatherDisplay:10.37,2013-03-18 19:52:00,
2013-03-18 20:57:00,31.6,27.9,29.30,ENE,67,5.8,5.8,86,0.02,,,0.04,0.0,WeatherDisplay:10.37,2013-03-18 19:57:00,
2013-03-18 21:03:00,31.6,27.9,29.30,NE,48,7.0,7.0,86,0.02,CLR,,0.04,0.0,WeatherDisplay:10.37,2013-03-18 20:03:00,
2013-03-18 21:08:00,31.6,27.9,29.30,ENE,64,6.9,6.9,86,0.02,CLR,,0.04,0.0,WeatherDisplay:10.37,2013-03-18 20:08:00,
2013-03-18 21:13:00,31.6,27.9,29.30,NE,49,8.1,8.1,86,0.02,CLR,,0.04,0.0,WeatherDisplay:10.37,2013-03-18 20:13:00,
2013-03-18 21:18:00,31.6,27.9,29.30,ENE,58,6.0,6.0,86,0.02,RA,,0.05,0.0,WeatherDisplay:10.37,2013-03-18 20:18:00,
2013-03-18 21:23:00,31.6,27.9,29.29,East,83,6.9,6.9,86,0.02,RA,,0.05,0.0,WeatherDisplay:10.37,2013-03-18 20:23:00,
2013-03-18 21:28:00,31.6,27.9,29.30,East,97,6.0,6.0,86,0.02,CLR,,0.05,0.0,WeatherDisplay:10.37,2013-03-18 20:28:00,
2013-03-18 21:33:00,31.6,27.9,29.30,ENE,76,5.8,5.8,86,0.02,CLR,,0.05,0.0,WeatherDisplay:10.37,2013-03-18 20:33:00,
2013-03-18 21:39:00,31.6,27.9,29.30,ENE,59,4.6,4.6,86,0.02,RA,,0.06,0.0,WeatherDisplay:10.37,2013-03-18 20:39:00,
2013-03-18 21:44:00,31.6,27.9,29.29,East,86,4.6,4.6,86,0.02,RA,,0.06,0.0,WeatherDisplay:10.37,2013-03-18 20:44:00,
2013-03-18 21:49:00,31.6,27.9,29.29,ENE,61,3.5,3.5,86,0.02,,,0.06,0.0,WeatherDisplay:10.37,2013-03-18 20:49:00,
2013-03-18 21:54:00,31.6,27.9,29.29,ENE,64,4.6,4.6,86,0.02,CLR,,0.06,0.0,WeatherDisplay:10.37,2013-03-18 20:54:00,
2013-03-18 21:59:00,31.6,27.9,29.29,ENE,78,5.0,5.0,86,0.02,CLR,,0.06,0.0,WeatherDisplay:10.37,2013-03-18 20:59:00,
2013-03-18 22:04:00,31.6,27.9,29.29,ENE,77,4.6,4.6,86,0.02,CLR,,0.06,0.0,WeatherDisplay:10.37,2013-03-18 21:04:00,
2013-03-18 22:09:00,31.6,27.9,29.29,ENE,57,6.9,6.9,86,0.02,CLR,,0.06,0.0,WeatherDisplay:10.37,2013-03-18 21:09:00,
2013-03-18 22:14:00,31.6,27.9,29.28,East,86,3.5,3.5,86,0.02,CLR,,0.06,0.0,WeatherDisplay:10.37,2013-03-18 21:14:00,
2013-03-18 22:19:00,31.6,27.9,29.28,ESE,122,5.8,5.8,86,0.02,RA,,0.06,0.0,WeatherDisplay:10.37,2013-03-18 21:19:00,
2013-03-18 22:24:00,31.6,27.3,29.28,East,88,3.5,3.5,84,0.02,RA,,0.06,0.0,WeatherDisplay:10.37,2013-03-18 21:24:00,
2013-03-18 22:29:00,31.6,27.0,29.28,East,80,4.0,4.0,83,0.02,,,0.06,0.0,WeatherDisplay:10.37,2013-03-18 21:29:00,
2013-03-18 22:34:00,31.6,27.0,29.28,East,84,4.0,4.0,83,0.02,CLR,,0.06,0.0,WeatherDisplay:10.37,2013-03-18 21:34:00,
2013-03-18 22:39:00,31.6,26.7,29.28,ENE,71,4.6,4.6,82,0.01,CLR,,0.06,0.0,WeatherDisplay:10.37,2013-03-18 21:39:00,
2013-03-18 22:44:00,31.6,26.7,29.28,East,84,3.5,3.5,82,0.01,CLR,,0.06,0.0,WeatherDisplay:10.37,2013-03-18 21:44:00,
2013-03-18 22:49:00,31.6,27.0,29.28,ESE,119,2.3,2.3,83,0.01,CLR,,0.06,0.0,WeatherDisplay:10.37,2013-03-18 21:49:00,
2013-03-18 22:54:00,31.6,27.0,29.27,ENE,64,3.5,3.5,83,0.02,RA,,0.07,0.0,WeatherDisplay:10.37,2013-03-18 21:54:00,
2013-03-18 22:59:00,31.6,27.0,29.27,East,80,3.5,3.5,83,0.02,RA,,0.07,0.0,WeatherDisplay:10.37,2013-03-18 21:59:00,
2013-03-18 23:04:00,31.6,27.0,29.27,East,84,2.3,2.3,83,0.02,,,0.07,0.0,WeatherDisplay:10.37,2013-03-18 22:04:00,
2013-03-18 23:09:00,31.6,27.0,29.27,ENE,74,3.5,3.5,83,0.02,CLR,,0.07,0.0,WeatherDisplay:10.37,2013-03-18 22:09:00,
2013-03-18 23:14:00,31.6,27.0,29.26,East,84,3.5,3.5,83,0.02,RA,,0.08,0.0,WeatherDisplay:10.37,2013-03-18 22:14:00,
2013-03-18 23:19:00,31.6,27.0,29.27,East,101,2.3,2.3,83,0.02,RA,,0.08,0.0,WeatherDisplay:10.37,2013-03-18 22:19:00,
2013-03-18 23:24:00,31.6,27.0,29.26,East,95,4.6,4.6,83,0.02,,,0.08,0.0,WeatherDisplay:10.37,2013-03-18 22:24:00,
2013-03-18 23:29:00,31.6,27.0,29.26,East,101,3.5,3.5,83,0.02,CLR,,0.08,0.0,WeatherDisplay:10.37,2013-03-18 22:29:00,
2013-03-18 23:34:00,31.6,27.0,29.26,East,94,2.3,2.3,83,0.02,CLR,,0.08,0.0,WeatherDisplay:10.37,2013-03-18 22:34:00,
2013-03-18 23:39:00,31.6,27.0,29.26,East,94,2.3,2.3,83,0.02,RA,,0.09,0.0,WeatherDisplay:10.37,2013-03-18 22:39:00,
2013-03-18 23:44:00,31.6,27.0,29.26,East,94,3.5,3.5,83,0.02,RA,,0.09,0.0,WeatherDisplay:10.37,2013-03-18 22:44:00,
2013-03-18 23:49:00,31.6,27.0,29.26,East,92,3.5,3.5,83,0.02,CLR,,0.09,0.0,WeatherDisplay:10.37,2013-03-18 22:49:00,
2013-03-18 23:54:00,31.6,27.0,29.25,East,93,1.2,1.2,83,0.02,CLR,,0.09,0.0,WeatherDisplay:10.37,2013-03-18 22:54:00,
2013-03-18 23:59:00,31.6,27.3,29.25,East,94,2.3,2.3,84,0.02,CLR,,0.09,0.0,WeatherDisplay:10.37,2013-03-18 22:59:00,